Time;durP1;ratioP1;P1;durP2;ratioP2;P2;SDS_P1;SDS_P2;PMS_P1;PMS_P2;Temp;Humidity;BMP_temperature;BMP_pressure;BME280_temperature;BME280_humidity;BME280_pressure;Samples;Min_cycle;Max_cycle;Signal;HPM_P1;HPM_P2
2023/09/11 00:02:20;;;;;;;1.20;1.10;;;;;;;15.56;80.70;94964.44;5127003;27;20202;-78
2023/09/11 00:04:47;;;;;;;1.50;0.90;;;;;;;15.52;80.82;94967.03;5114294;28;20562;-78
2023/09/11 00:07:14;;;;;;;1.08;0.98;;;;;;;15.46;81.03;94957.50;5113964;28;20209;-77
2023/09/11 00:09:41;;;;;;;0.20;0.20;;;;;;;15.48;81.01;94966.16;5114242;28;20281;-77
2023/09/11 00:12:08;;;;;;;0.10;0.10;;;;;;;15.46;81.15;94973.88;5113791;28;20222;-77
2023/09/11 00:14:34;;;;;;;0.68;0.60;;;;;;;15.36;81.50;94968.94;5114198;28;20256;-77
2023/09/11 00:17:01;;;;;;;0.55;0.50;;;;;;;15.28;82.02;94967.97;5113818;28;20663;-78
2023/09/11 00:19:29;;;;;;;0.70;0.70;;;;;;;15.23;82.46;94970.16;5114136;28;20234;-76
2023/09/11 00:21:56;;;;;;;0.20;0.20;;;;;;;15.19;82.42;94964.59;5114046;28;20627;-78
2023/09/11 00:24:23;;;;;;;0.20;0.20;;;;;;;15.13;82.88;94962.47;5113620;28;20262;-77
2023/09/11 00:26:50;;;;;;;0.20;0.20;;;;;;;15.08;83.14;94970.91;5113772;28;20233;-78
2023/09/11 00:29:16;;;;;;;0.13;0.13;;;;;;;15.05;83.25;94963.41;5113615;28;20236;-77
2023/09/11 00:31:43;;;;;;;0.20;0.20;;;;;;;15.06;83.28;94954.88;5114343;28;20217;-78
2023/09/11 00:34:10;;;;;;;0.20;0.20;;;;;;;15.06;83.44;94951.34;5113686;28;21574;-77
2023/09/11 00:36:38;;;;;;;0.40;0.40;;;;;;;14.98;83.55;94953.09;5113571;28;20658;-79
2023/09/11 00:39:05;;;;;;;2.58;0.50;;;;;;;14.95;83.66;94956.50;5113386;28;20209;-78
2023/09/11 00:41:32;;;;;;;0.20;0.20;;;;;;;14.92;83.78;94955.25;5113601;28;20206;-77
2023/09/11 00:43:59;;;;;;;0.20;0.20;;;;;;;14.86;84.16;94959.41;5113776;28;20579;-78
2023/09/11 00:46:26;;;;;;;0.10;0.10;;;;;;;14.85;84.25;94957.81;5113558;28;20582;-79
2023/09/11 00:48:54;;;;;;;0.20;0.20;;;;;;;14.84;84.22;94956.22;5131254;27;20225;-79
2023/09/11 00:51:21;;;;;;;0.20;0.20;;;;;;;14.84;84.29;94948.03;5133834;27;20672;-78
2023/09/11 00:53:50;;;;;;;0.30;0.30;;;;;;;14.84;84.44;94955.41;5134115;27;20220;-78
2023/09/11 00:56:17;;;;;;;0.10;0.10;;;;;;;14.81;84.40;94954.16;5133538;27;20204;-78
2023/09/11 00:58:45;;;;;;;0.20;0.20;;;;;;;14.79;84.71;94958.38;5133795;27;20673;-79
2023/09/11 01:01:13;;;;;;;0.10;0.10;;;;;;;14.79;84.67;94945.53;5132577;27;20197;-77
2023/09/11 01:03:40;;;;;;;0.20;0.20;;;;;;;14.83;84.82;94941.00;5114183;27;20210;-78
2023/09/11 01:06:08;;;;;;;0.20;0.20;;;;;;;14.73;85.38;94949.66;5113327;28;20608;-79
2023/09/11 01:08:35;;;;;;;0.65;0.47;;;;;;;14.71;85.31;94951.94;5113200;28;20316;-79
2023/09/11 01:11:03;;;;;;;0.25;0.25;;;;;;;14.66;85.62;94949.44;5113096;28;20608;-78
2023/09/11 01:13:30;;;;;;;0.20;0.20;;;;;;;14.58;86.01;94950.38;5112973;28;20226;-78
2023/09/11 01:16:06;;;;;;;0.20;0.20;;;;;;;14.56;85.73;94952.66;5112551;28;20714;-78
2023/09/11 01:18:39;;;;;;;0.10;0.10;;;;;;;14.51;86.06;94945.50;5120911;27;20862;-78
2023/09/11 01:21:39;;;;;;;0.20;0.20;;;;;;;14.52;85.48;94949.03;5133077;27;20207;-79
2023/09/11 01:24:34;;;;;;;0.20;0.20;;;;;;;14.48;85.60;94951.66;5119837;27;20573;-79
2023/09/11 01:27:31;;;;;;;0.20;0.20;;;;;;;14.44;85.67;94956.22;5123773;27;20700;-78
2023/09/11 01:30:00;;;;;;;0.30;0.30;;;;;;;14.42;85.69;94954.97;5133337;27;20208;-79
2023/09/11 01:32:27;;;;;;;0.63;0.63;;;;;;;14.35;86.12;94952.00;5133351;27;20208;-78
2023/09/11 01:34:53;;;;;;;0.50;0.40;;;;;;;14.33;86.24;94946.88;5133564;27;20770;-79
2023/09/11 01:37:20;;;;;;;0.35;0.35;;;;;;;14.40;85.90;94943.59;5132592;27;20315;-79
2023/09/11 01:39:48;;;;;;;0.47;0.47;;;;;;;14.36;85.80;94943.44;5114932;27;20538;-78
2023/09/11 01:42:20;;;;;;;0.50;0.50;;;;;;;14.26;86.65;94948.59;5132962;27;20563;-78
2023/09/11 01:44:48;;;;;;;0.40;0.40;;;;;;;14.25;86.72;94942.34;5132973;27;20209;-78
2023/09/11 01:47:21;;;;;;;0.43;0.43;;;;;;;14.29;86.31;94942.47;5132278;27;20208;-77
2023/09/11 01:49:49;;;;;;;0.50;0.50;;;;;;;14.28;86.23;94946.31;5132943;27;20213;-78
2023/09/11 01:52:17;;;;;;;0.20;0.20;;;;;;;14.20;86.72;94940.66;5132412;27;20258;-79
2023/09/11 01:54:44;;;;;;;0.10;0.10;;;;;;;14.14;86.96;94952.13;5132567;27;20299;-79
2023/09/11 01:57:11;;;;;;;0.20;0.20;;;;;;;14.07;87.07;94947.25;5130320;27;20261;-77
2023/09/11 01:59:38;;;;;;;0.38;0.38;;;;;;;14.07;87.19;94950.00;5127779;27;20197;-77
2023/09/11 02:02:06;;;;;;;0.40;0.40;;;;;;;14.01;87.52;94945.88;5125534;27;20262;-78
2023/09/11 02:04:34;;;;;;;0.25;0.25;;;;;;;13.99;87.69;94945.44;5119069;27;20289;-77
2023/09/11 02:07:01;;;;;;;0.52;0.52;;;;;;;14.00;87.65;94941.56;5118338;27;20240;-77
2023/09/11 02:09:28;;;;;;;0.47;0.47;;;;;;;13.95;87.82;94939.06;5131980;27;20224;-77
2023/09/11 02:11:54;;;;;;;0.88;0.50;;;;;;;13.92;88.11;94934.31;5121939;27;20228;-77
2023/09/11 02:14:21;;;;;;;0.20;0.20;;;;;;;13.89;88.19;94945.91;5132279;27;20244;-77
2023/09/11 02:16:48;;;;;;;0.20;0.20;;;;;;;13.80;88.68;94931.59;5130829;27;20229;-76
2023/09/11 02:19:15;;;;;;;0.20;0.20;;;;;;;13.80;88.54;94942.50;5131823;27;20201;-77
2023/09/11 02:21:43;;;;;;;0.20;0.20;;;;;;;13.73;89.37;94942.25;5132301;27;20204;-76
2023/09/11 02:24:10;;;;;;;0.20;0.20;;;;;;;13.63;89.56;94940.78;5131819;27;20193;-77
2023/09/11 02:26:36;;;;;;;0.10;0.10;;;;;;;13.59;89.75;94941.78;5132093;27;20228;-77
2023/09/11 02:29:03;;;;;;;0.20;0.20;;;;;;;13.56;90.01;94934.28;5131535;27;20224;-77
2023/09/11 02:31:30;;;;;;;1.08;0.60;;;;;;;13.46;90.01;94939.06;5131776;27;20197;-77
2023/09/11 02:33:57;;;;;;;0.70;0.70;;;;;;;13.46;90.47;94939.06;5128781;27;20262;-77
2023/09/11 02:36:24;;;;;;;0.60;0.60;;;;;;;13.55;90.41;94936.22;5126464;27;20202;-77
2023/09/11 02:38:52;;;;;;;0.10;0.10;;;;;;;13.55;90.00;94940.88;5126776;27;20563;-77
2023/09/11 02:41:18;;;;;;;0.10;0.10;;;;;;;13.55;90.62;94933.50;5131093;27;20216;-78
2023/09/11 02:43:45;;;;;;;0.25;0.25;;;;;;;13.44;91.17;94935.06;5131594;27;20209;-77
2023/09/11 02:46:12;;;;;;;0.20;0.20;;;;;;;13.40;91.59;94932.22;5131187;27;20285;-77
2023/09/11 02:48:45;;;;;;;0.10;0.10;;;;;;;13.35;92.08;94937.91;5131239;27;20228;-77
2023/09/11 02:51:12;;;;;;;0.30;0.30;;;;;;;13.27;91.70;94930.59;5131105;27;20370;-78
2023/09/11 02:53:39;;;;;;;0.20;0.20;;;;;;;13.23;91.50;94935.16;5117747;27;20233;-77
2023/09/11 02:56:07;;;;;;;0.20;0.20;;;;;;;13.16;92.04;94932.19;5121044;27;20212;-77
2023/09/11 02:58:34;;;;;;;0.10;0.10;;;;;;;13.12;92.28;94931.22;5127825;27;20200;-78
2023/09/11 03:01:02;;;;;;;0.20;0.20;;;;;;;13.11;92.25;94932.38;5130945;27;20682;-76
2023/09/11 03:03:29;;;;;;;0.20;0.20;;;;;;;13.15;92.08;94934.09;5117404;27;20205;-76
2023/09/11 03:05:57;;;;;;;0.10;0.10;;;;;;;13.07;92.14;94931.44;5131053;27;20204;-77
2023/09/11 03:08:24;;;;;;;0.15;0.15;;;;;;;13.00;91.84;94925.75;5130717;27;20246;-76
2023/09/11 03:10:51;;;;;;;0.20;0.20;;;;;;;12.96;92.05;94931.09;5131403;27;20229;-78
2023/09/11 03:13:19;;;;;;;0.20;0.20;;;;;;;13.03;91.85;94927.81;5130828;27;20236;-77
2023/09/11 03:15:46;;;;;;;0.43;0.43;;;;;;;13.03;91.29;94935.97;5130966;27;20252;-77
2023/09/11 03:18:13;;;;;;;0.20;0.20;;;;;;;13.06;90.75;94936.09;5130816;27;20201;-77
2023/09/11 03:20:39;;;;;;;0.20;0.20;;;;;;;13.13;89.62;94930.88;5130877;27;20209;-77
2023/09/11 03:23:07;;;;;;;0.20;0.20;;;;;;;13.22;89.42;94936.28;5130641;27;20549;-78
2023/09/11 03:25:35;;;;;;;0.10;0.10;;;;;;;13.19;89.33;94928.78;5131168;27;20212;-77
2023/09/11 03:28:02;;;;;;;0.20;0.20;;;;;;;13.15;89.21;94938.75;5130685;27;20240;-78
2023/09/11 03:30:30;;;;;;;0.43;0.43;;;;;;;13.06;89.99;94940.75;5131108;28;20692;-78
2023/09/11 03:32:57;;;;;;;0.57;0.50;;;;;;;13.01;89.89;94930.06;5131011;28;20282;-77
2023/09/11 03:35:24;;;;;;;1.77;0.52;;;;;;;12.96;90.09;94930.28;5131059;28;20706;-78
2023/09/11 03:37:51;;;;;;;0.10;0.10;;;;;;;12.94;89.83;94936.06;5130477;28;20205;-78
2023/09/11 03:40:20;;;;;;;0.45;0.45;;;;;;;12.85;90.80;94937.28;5130662;28;20203;-78
2023/09/11 03:42:47;;;;;;;0.20;0.20;;;;;;;12.88;91.10;94933.88;5131144;28;20201;-77
2023/09/11 03:45:13;;;;;;;0.10;0.10;;;;;;;12.82;91.33;94928.66;5130880;28;20253;-78
2023/09/11 03:47:42;;;;;;;0.90;0.90;;;;;;;12.78;91.83;94930.44;5130346;28;20201;-77
2023/09/11 03:50:09;;;;;;;0.80;0.70;;;;;;;12.78;91.79;94935.88;5130355;28;20229;-78
2023/09/11 03:52:36;;;;;;;0.60;0.60;;;;;;;12.82;91.27;94927.84;5123098;28;20220;-78
2023/09/11 03:55:03;;;;;;;0.47;0.47;;;;;;;12.95;91.21;94931.41;5125194;28;20237;-78
2023/09/11 03:57:30;;;;;;;0.73;0.73;;;;;;;13.01;91.17;94939.00;5130875;28;20284;-78
2023/09/11 03:59:56;;;;;;;0.82;0.70;;;;;;;13.02;91.03;94934.38;5130141;28;20204;-78
2023/09/11 04:02:23;;;;;;;2.15;0.52;;;;;;;12.97;91.46;94937.31;5122430;28;20547;-77
2023/09/11 04:04:51;;;;;;;0.65;0.65;;;;;;;13.00;90.92;94942.06;5125288;28;20207;-77
2023/09/11 04:07:19;;;;;;;1.00;0.30;;;;;;;12.93;91.16;94936.38;5130386;28;20209;-78
2023/09/11 04:09:46;;;;;;;1.55;1.05;;;;;;;12.91;91.62;94942.16;5130859;28;20558;-83
2023/09/11 04:12:16;;;;;;;0.10;0.10;;;;;;;13.05;91.41;94950.81;5130680;28;20629;-77
2023/09/11 04:14:43;;;;;;;0.10;0.10;;;;;;;13.19;90.84;94945.13;5130932;28;20205;-78
2023/09/11 04:17:11;;;;;;;0.10;0.10;;;;;;;13.70;89.62;94943.72;5129806;27;20244;-79
2023/09/11 04:19:38;;;;;;;0.20;0.20;;;;;;;13.97;88.76;94947.69;5130414;28;20202;-79
2023/09/11 04:22:06;;;;;;;0.30;0.30;;;;;;;14.78;85.99;94938.50;5130625;28;20657;-80
2023/09/11 04:24:34;;;;;;;0.20;0.20;;;;;;;15.58;82.76;94943.81;5130780;28;20645;-79
2023/09/11 04:27:02;;;;;;;0.10;0.10;;;;;;;16.23;79.13;94936.03;5130185;28;20212;-80
2023/09/11 04:29:31;;;;;;;1.17;0.75;;;;;;;16.77;76.41;94929.81;5130626;28;20224;-80
2023/09/11 04:31:57;;;;;;;0.15;0.15;;;;;;;17.44;73.83;94933.09;5130244;28;20199;-80
2023/09/11 04:34:24;;;;;;;0.10;0.10;;;;;;;18.11;71.58;94927.97;5130380;27;20205;-80
2023/09/11 04:36:51;;;;;;;1.10;0.30;;;;;;;18.41;69.18;94925.31;5132876;27;20197;-79
2023/09/11 04:39:20;;;;;;;0.20;0.20;;;;;;;18.94;67.58;94928.00;5134183;27;20223;-80
2023/09/11 04:41:47;;;;;;;0.17;0.17;;;;;;;19.56;65.44;94926.38;5134054;27;20208;-81
2023/09/11 04:44:14;;;;;;;0.20;0.20;;;;;;;20.21;62.82;94917.53;5132331;27;20290;-81
2023/09/11 04:46:40;;;;;;;1.55;0.68;;;;;;;20.47;61.53;94927.56;5133834;27;20216;-80
2023/09/11 04:49:08;;;;;;;0.50;0.50;;;;;;;21.33;59.51;94926.81;5133556;27;20244;-80
2023/09/11 04:51:35;;;;;;;0.60;0.60;;;;;;;21.90;57.48;94922.22;5133796;27;20205;-80
2023/09/11 04:54:02;;;;;;;0.40;0.40;;;;;;;21.96;57.12;94920.66;5119755;27;20208;-80
2023/09/11 04:56:30;;;;;;;0.20;0.20;;;;;;;22.24;55.84;94924.66;5134249;27;20614;-81
2023/09/11 04:58:58;;;;;;;0.20;0.20;;;;;;;22.91;54.52;94921.81;5133803;27;20259;-80
2023/09/11 05:01:25;;;;;;;0.85;0.60;;;;;;;23.28;53.11;94921.25;5133530;27;20197;-80
2023/09/11 05:03:51;;;;;;;1.42;1.00;;;;;;;23.78;51.40;94912.72;5120521;27;20201;-80
2023/09/11 05:06:18;;;;;;;0.50;0.50;;;;;;;24.17;50.07;94911.66;5133439;27;20193;-81
2023/09/11 05:08:45;;;;;;;1.95;0.57;;;;;;;24.42;49.08;94915.03;5133767;27;20201;-81
2023/09/11 05:11:12;;;;;;;0.77;0.68;;;;;;;24.84;47.92;94915.81;5121709;27;20252;-80
2023/09/11 05:13:40;;;;;;;0.57;0.57;;;;;;;25.36;47.29;94911.66;5133455;27;20232;-81
2023/09/11 05:16:07;;;;;;;0.63;0.63;;;;;;;25.88;45.67;94905.81;5133058;27;20612;-81
2023/09/11 05:18:34;;;;;;;0.68;0.63;;;;;;;25.85;45.84;94906.66;5133607;27;20209;-81
2023/09/11 05:21:00;;;;;;;1.58;0.70;;;;;;;26.39;44.40;94901.06;5133476;27;20778;-81
2023/09/11 05:23:27;;;;;;;0.90;0.70;;;;;;;25.83;45.15;94900.75;5133577;27;20300;-81
2023/09/11 05:25:54;;;;;;;0.70;0.70;;;;;;;26.28;44.23;94894.88;5138020;27;20201;-82
2023/09/11 05:28:21;;;;;;;0.70;0.65;;;;;;;26.26;43.74;94894.50;5133155;27;20193;-81
2023/09/11 05:30:50;;;;;;;0.93;0.50;;;;;;;25.62;44.51;94899.06;5133393;27;20661;-81
2023/09/11 05:33:17;;;;;;;1.25;0.60;;;;;;;25.75;44.15;94902.03;5124031;27;20230;-81
2023/09/11 05:35:45;;;;;;;0.55;0.55;;;;;;;26.01;44.37;94904.03;5130564;27;20201;-81
2023/09/11 05:38:12;;;;;;;0.50;0.50;;;;;;;26.11;43.26;94897.50;5124244;27;20742;-81
2023/09/11 05:40:39;;;;;;;0.50;0.50;;;;;;;26.11;43.38;94903.06;5132256;27;20276;-81
2023/09/11 05:43:06;;;;;;;0.80;0.60;;;;;;;26.16;42.89;94899.81;5128648;27;20212;-79
2023/09/11 05:45:34;;;;;;;0.68;0.68;;;;;;;26.67;42.60;94906.13;5125626;27;20586;-81
2023/09/11 05:48:03;;;;;;;0.40;0.40;;;;;;;27.49;41.21;94899.78;5131469;27;20201;-77
2023/09/11 05:50:30;;;;;;;1.08;0.60;;;;;;;27.96;40.52;94899.56;5127449;27;20217;-82
2023/09/11 05:52:56;;;;;;;0.65;0.63;;;;;;;27.77;40.36;94897.63;5130983;27;20226;-81
2023/09/11 05:55:23;;;;;;;1.52;1.00;;;;;;;26.72;41.89;94905.66;5122493;27;20205;-81
2023/09/11 05:57:50;;;;;;;0.60;0.60;;;;;;;27.00;41.62;94900.78;5126798;27;20206;-81
2023/09/11 06:00:26;;;;;;;1.45;1.33;;;;;;;27.15;41.45;94902.88;5128084;27;20212;-81
2023/09/11 06:02:53;;;;;;;1.05;0.75;;;;;;;26.90;41.85;94895.00;5130795;27;20208;-79
2023/09/11 06:05:25;;;;;;;0.80;0.50;;;;;;;26.86;41.81;94897.03;5127470;27;20196;-79
2023/09/11 06:07:52;;;;;;;0.50;0.50;;;;;;;26.64;41.66;94895.88;5127578;27;20289;-80
2023/09/11 06:10:23;;;;;;;1.10;0.70;;;;;;;26.11;43.41;94897.50;5132707;27;20311;-81
2023/09/11 06:12:51;;;;;;;0.60;0.55;;;;;;;26.92;41.78;94899.34;5133663;27;20693;-78
2023/09/11 06:15:18;;;;;;;0.63;0.57;;;;;;;26.44;42.44;94903.38;5124274;27;20597;-82
2023/09/11 06:17:45;;;;;;;0.55;0.40;;;;;;;26.25;43.00;94901.28;5112130;28;20553;-81
2023/09/11 06:20:15;;;;;;;0.40;0.40;;;;;;;26.50;42.39;94907.25;5128070;27;20193;-82
2023/09/11 06:22:43;;;;;;;1.25;0.90;;;;;;;26.50;42.41;94913.59;5123933;27;20205;-81
2023/09/11 06:25:10;;;;;;;0.63;0.60;;;;;;;26.15;42.87;94912.13;5128640;27;20200;-83
2023/09/11 06:27:38;;;;;;;1.00;0.65;;;;;;;26.73;42.15;94912.00;5129438;27;20211;-81
2023/09/11 06:30:09;;;;;;;0.43;0.43;;;;;;;26.89;41.11;94912.88;5115683;27;20228;-78
2023/09/11 06:32:36;;;;;;;0.60;0.60;;;;;;;26.63;41.93;94915.75;5125670;27;20204;-78
2023/09/11 06:35:05;;;;;;;0.50;0.50;;;;;;;26.10;42.67;94918.16;5131726;27;20216;-79
2023/09/11 06:37:37;;;;;;;1.05;0.50;;;;;;;25.52;44.54;94926.91;5129279;27;20292;-82
2023/09/11 06:40:10;;;;;;;1.65;1.00;;;;;;;26.24;43.17;94908.06;5130918;27;20701;-76
2023/09/11 06:42:37;;;;;;;0.80;0.70;;;;;;;27.57;40.40;94917.94;5126283;27;20206;-76
2023/09/11 06:45:05;;;;;;;0.60;0.60;;;;;;;28.15;38.97;94911.88;5123774;27;20587;-75
2023/09/11 06:47:33;;;;;;;1.40;1.00;;;;;;;28.52;38.06;94919.75;5131490;27;20213;-75
2023/09/11 06:50:00;;;;;;;0.70;0.50;;;;;;;27.70;39.32;94911.72;5116468;27;20329;-77
2023/09/11 06:52:27;;;;;;;1.17;0.95;;;;;;;27.01;40.73;94914.28;5127594;27;20197;-79
2023/09/11 06:54:59;;;;;;;0.90;0.60;;;;;;;27.07;41.50;94911.78;5129338;27;20205;-79
2023/09/11 06:57:30;;;;;;;0.50;0.50;;;;;;;27.40;40.87;94913.50;5125362;27;20213;-78
2023/09/11 06:59:58;;;;;;;1.35;1.08;;;;;;;27.85;40.21;94910.19;5116729;27;20229;-78
2023/09/11 07:02:25;;;;;;;0.60;0.60;;;;;;;27.07;40.91;94912.56;5121285;27;20209;-78
2023/09/11 07:04:51;;;;;;;0.73;0.70;;;;;;;27.04;40.87;94912.66;5113381;27;20526;-77
2023/09/11 07:07:18;;;;;;;1.05;0.60;;;;;;;27.46;40.41;94906.22;5129209;27;20567;-76
2023/09/11 07:09:48;;;;;;;0.95;0.75;;;;;;;26.70;42.05;94916.41;5122060;27;20197;-77
2023/09/11 07:12:41;;;;;;;0.60;0.60;;;;;;;25.98;43.00;94909.63;5117717;27;20228;-75
2023/09/11 07:15:11;;;;;;;0.60;0.60;;;;;;;25.50;44.04;94913.47;5109184;28;20209;-75
2023/09/11 07:17:37;;;;;;;1.00;0.77;;;;;;;26.36;42.83;94907.50;5118155;27;20203;-78
2023/09/11 07:20:09;;;;;;;0.98;0.68;;;;;;;25.45;44.23;94906.38;5130004;27;20216;-79
2023/09/11 07:22:36;;;;;;;0.70;0.70;;;;;;;24.89;45.56;94907.81;5130924;27;20609;-77
2023/09/11 07:25:17;;;;;;;0.88;0.70;;;;;;;25.31;44.70;94903.78;5129638;27;20228;-80
2023/09/11 07:27:48;;;;;;;0.70;0.70;;;;;;;25.63;44.54;94908.16;5124832;27;21571;-80
2023/09/11 07:30:21;;;;;;;0.68;0.68;;;;;;;24.41;46.37;94911.47;5125062;27;20205;-80
2023/09/11 07:32:49;;;;;;;0.68;0.68;;;;;;;24.03;46.77;94910.56;5126158;28;20200;-77
2023/09/11 07:35:15;;;;;;;0.40;0.40;;;;;;;23.34;48.42;94905.84;5123079;27;20607;-82
2023/09/11 07:37:46;;;;;;;0.50;0.50;;;;;;;24.03;48.16;94909.78;5119883;28;20268;-78
2023/09/11 07:40:17;;;;;;;1.45;0.90;;;;;;;24.64;46.95;94897.00;5126093;28;20223;-82
2023/09/11 07:42:44;;;;;;;0.68;0.65;;;;;;;25.41;44.95;94905.66;5121340;28;20197;-79
2023/09/11 07:45:11;;;;;;;0.90;0.90;;;;;;;25.26;45.95;94904.25;5124802;28;20558;-78
2023/09/11 07:47:40;;;;;;;0.70;0.70;;;;;;;24.34;47.11;94916.28;5130883;28;20209;-79
2023/09/11 07:50:08;;;;;;;0.65;0.65;;;;;;;24.14;47.52;94909.69;5126439;28;20752;-76
2023/09/11 07:52:36;;;;;;;1.05;0.95;;;;;;;23.84;48.19;94911.09;5122078;27;20201;-76
2023/09/11 07:55:24;;;;;;;0.68;0.68;;;;;;;23.60;48.64;94898.22;5112827;28;20254;-74
2023/09/11 07:57:53;;;;;;;0.50;0.50;;;;;;;23.73;47.73;94904.84;5106560;28;20213;-75
2023/09/11 08:00:20;;;;;;;0.60;0.60;;;;;;;24.34;45.87;94883.03;5109960;28;20216;-76
2023/09/11 08:02:49;;;;;;;0.88;0.77;;;;;;;24.83;45.85;94897.59;5129521;28;20205;-76
2023/09/11 08:05:16;;;;;;;0.77;0.60;;;;;;;25.18;45.04;94902.75;5124201;28;20210;-74
2023/09/11 08:07:44;;;;;;;1.00;0.90;;;;;;;25.00;45.22;94896.66;5114612;28;20274;-74
2023/09/11 08:10:10;;;;;;;1.13;0.70;;;;;;;24.82;45.28;94899.59;5110752;28;20229;-75
2023/09/11 08:12:37;;;;;;;0.77;0.77;;;;;;;25.36;44.36;94886.69;5113005;28;20226;-75
2023/09/11 08:15:05;;;;;;;0.88;0.63;;;;;;;24.33;44.62;94898.06;5113246;28;20205;-74
2023/09/11 08:17:34;;;;;;;3.22;1.27;;;;;;;23.91;46.54;94900.00;5123972;27;20208;-75
2023/09/11 08:20:03;;;;;;;0.60;0.60;;;;;;;24.09;45.40;94897.06;5128763;27;20203;-75
2023/09/11 08:22:31;;;;;;;0.85;0.85;;;;;;;24.03;45.14;94890.41;5129850;27;20232;-76
2023/09/11 08:24:58;;;;;;;0.47;0.47;;;;;;;23.29;46.82;94892.41;5126420;27;20215;-74
2023/09/11 08:27:25;;;;;;;0.47;0.47;;;;;;;23.51;46.00;94884.03;5134108;27;20201;-75
2023/09/11 08:29:55;;;;;;;1.50;0.80;;;;;;;23.30;46.14;94882.94;5126707;27;20208;-74
2023/09/11 08:32:22;;;;;;;0.77;0.77;;;;;;;23.23;45.67;94885.75;5132977;27;20209;-75
2023/09/11 08:34:54;;;;;;;0.60;0.60;;;;;;;23.37;46.03;94882.13;5122160;27;20774;-75
2023/09/11 08:37:34;;;;;;;0.70;0.70;;;;;;;23.76;45.39;94873.63;5128593;27;20225;-76
2023/09/11 08:40:01;;;;;;;0.65;0.65;;;;;;;23.77;44.99;94866.88;5122467;27;20292;-77
2023/09/11 08:42:29;;;;;;;0.98;0.45;;;;;;;23.42;45.87;94878.13;5130621;27;20650;-76
2023/09/11 08:44:56;;;;;;;1.67;1.15;;;;;;;23.58;45.68;94872.94;5128598;27;20197;-74
2023/09/11 08:47:29;;;;;;;0.70;0.70;;;;;;;23.96;44.79;94865.53;5133476;27;20201;-74
2023/09/11 08:49:59;;;;;;;1.02;0.60;;;;;;;24.44;43.67;94871.09;5126314;27;20301;-73
2023/09/11 08:52:34;;;;;;;0.90;0.80;;;;;;;24.54;43.75;94867.44;5133001;27;20205;-76
2023/09/11 08:55:05;;;;;;;0.63;0.60;;;;;;;24.83;43.63;94875.44;5118580;27;20224;-74
2023/09/11 08:57:33;;;;;;;1.25;0.57;;;;;;;24.70;43.18;94864.88;5117705;27;20551;-74
2023/09/11 09:00:05;;;;;;;0.50;0.50;;;;;;;24.88;43.16;94869.41;5133265;27;20205;-75
2023/09/11 09:02:37;;;;;;;0.55;0.55;;;;;;;24.65;43.32;94870.88;5123573;27;20288;-77
2023/09/11 09:05:08;;;;;;;0.80;0.55;;;;;;;24.24;43.45;94867.31;5111922;28;20221;-74
2023/09/11 09:07:43;;;;;;;0.82;0.80;;;;;;;24.47;43.82;94870.25;5129469;27;20214;-77
2023/09/11 09:10:12;;;;;;;0.70;0.70;;;;;;;24.67;42.98;94857.38;5119983;27;20204;-75
2023/09/11 09:12:43;;;;;;;0.73;0.68;;;;;;;24.85;43.25;94848.09;5133378;27;20229;-80
2023/09/11 09:15:11;;;;;;;0.70;0.63;;;;;;;24.63;43.67;94853.06;5132151;27;20238;-78
2023/09/11 09:17:43;;;;;;;0.77;0.77;;;;;;;24.82;43.61;94857.22;5133423;27;20253;-79
2023/09/11 09:20:11;;;;;;;1.15;0.60;;;;;;;24.96;42.42;94848.78;5132217;27;20201;-76
2023/09/11 09:23:07;;;;;;;2.58;1.25;;;;;;;24.28;43.92;94848.69;5118838;27;20270;-78
2023/09/11 09:25:34;;;;;;;0.75;0.75;;;;;;;23.99;44.02;94846.16;5123249;27;20853;-77
2023/09/11 09:28:02;;;;;;;0.93;0.68;;;;;;;24.07;44.75;94853.19;5132390;27;20201;-79
2023/09/11 09:30:32;;;;;;;0.40;0.40;;;;;;;24.33;44.66;94842.69;5131187;27;20208;-79
2023/09/11 09:33:02;;;;;;;1.48;0.63;;;;;;;24.91;43.55;94838.91;5130430;27;20197;-80
2023/09/11 09:35:31;;;;;;;0.70;0.70;;;;;;;25.15;42.93;94834.25;5130151;27;20201;-79
2023/09/11 09:37:59;;;;;;;0.68;0.65;;;;;;;24.95;43.05;94827.81;5132645;27;20208;-78
2023/09/11 09:40:42;;;;;;;0.43;0.43;;;;;;;24.60;43.39;94838.06;5131275;27;20359;-77
2023/09/11 09:43:26;;;;;;;2.40;0.70;;;;;;;24.95;42.31;94833.34;5123429;27;20251;-78
2023/09/11 09:45:56;;;;;;;0.75;0.60;;;;;;;24.51;42.82;94832.22;5129090;27;20197;-80
2023/09/11 09:48:23;;;;;;;0.95;0.70;;;;;;;24.86;43.27;94819.19;5130226;27;20250;-78
2023/09/11 09:53:42;;;;;;;1.17;0.70;;;;;;;24.91;41.93;94816.72;5108738;27;20738;-79
2023/09/11 09:56:12;;;;;;;0.95;0.77;;;;;;;24.87;41.56;94816.00;5130968;27;20265;-78
2023/09/11 09:58:40;;;;;;;1.38;0.85;;;;;;;24.38;42.29;94822.88;5131963;27;20200;-77
2023/09/11 10:01:19;;;;;;;1.20;1.10;;;;;;;24.59;42.61;94816.34;5132266;27;20645;-76
2023/09/11 10:03:48;;;;;;;0.60;0.60;;;;;;;24.71;41.77;94802.72;5112224;28;20623;-76
2023/09/11 10:06:17;;;;;;;0.85;0.73;;;;;;;24.85;42.27;94807.31;5128415;27;20257;-76
2023/09/11 10:08:45;;;;;;;2.10;0.82;;;;;;;25.18;41.56;94797.38;5118482;27;20234;-76
2023/09/11 10:14:10;;;;;;;0.65;0.65;;;;;;;25.19;40.64;94787.88;5076570;27;20562;-76
2023/09/11 10:16:37;;;;;;;0.88;0.70;;;;;;;25.16;41.33;94799.78;5066834;28;20203;-76
2023/09/11 10:19:05;;;;;;;0.70;0.57;;;;;;;24.82;42.07;94774.09;5066695;28;20630;-76
2023/09/11 10:21:34;;;;;;;0.70;0.70;;;;;;;24.32;41.19;94813.47;5066479;28;20222;-79
2023/09/11 10:24:01;;;;;;;0.80;0.77;;;;;;;24.31;42.65;94801.59;5066991;28;20305;-83
2023/09/11 10:26:35;;;;;;;0.93;0.70;;;;;;;24.50;42.47;94797.41;5067080;28;20199;-78
2023/09/11 10:29:04;;;;;;;2.15;0.70;;;;;;;24.72;41.85;94796.00;5067120;28;20554;-78
2023/09/11 10:31:39;;;;;;;0.52;0.52;;;;;;;24.84;39.57;94789.09;5067162;28;20211;-78
2023/09/11 10:34:09;;;;;;;0.73;0.73;;;;;;;24.65;40.52;94787.75;5066383;28;20218;-79
2023/09/11 10:36:40;;;;;;;1.33;0.65;;;;;;;24.70;40.10;94779.00;5066879;28;20207;-79
2023/09/11 10:39:10;;;;;;;0.60;0.60;;;;;;;24.68;40.46;94781.38;5067081;28;20626;-78
2023/09/11 10:41:37;;;;;;;0.50;0.50;;;;;;;24.43;40.12;94795.53;5067141;28;20757;-77
2023/09/11 10:44:05;;;;;;;0.63;0.60;;;;;;;24.66;41.04;94778.22;5063562;28;20203;-78
2023/09/11 10:46:36;;;;;;;0.98;0.60;;;;;;;24.92;40.60;94778.69;5066685;28;20692;-78
2023/09/11 10:49:15;;;;;;;0.80;0.70;;;;;;;24.38;40.85;94784.88;5064724;28;20289;-78
2023/09/11 10:51:42;;;;;;;0.70;0.63;;;;;;;24.66;40.72;94772.69;5065480;28;20203;-76
2023/09/11 10:54:09;;;;;;;0.88;0.77;;;;;;;24.56;40.62;94770.84;5063741;28;20234;-77
2023/09/11 10:56:37;;;;;;;0.98;0.95;;;;;;;24.66;40.68;94772.69;5065983;28;20304;-77
2023/09/11 10:59:05;;;;;;;1.48;1.10;;;;;;;24.94;41.33;94765.25;5064704;28;20199;-81
2023/09/11 11:01:34;;;;;;;0.95;0.70;;;;;;;24.83;41.06;94762.59;5073654;28;20224;-81
2023/09/11 11:04:03;;;;;;;1.95;0.95;;;;;;;24.75;40.52;94752.78;5057739;28;20200;-82
2023/09/11 11:06:32;;;;;;;0.93;0.93;;;;;;;24.86;40.35;94763.75;5059210;28;20219;-84
2023/09/11 11:08:59;;;;;;;0.52;0.50;;;;;;;25.50;39.47;94752.53;5058758;28;20208;-83
2023/09/11 11:11:27;;;;;;;0.70;0.60;;;;;;;25.82;38.40;94740.97;5058511;28;20203;-85
2023/09/11 11:14:17;;;;;;;1.05;0.70;;;;;;;25.56;38.37;94741.75;5053551;28;20231;-78
2023/09/11 11:17:01;;;;;;;0.55;0.55;;;;;;;25.33;39.24;94740.50;5060548;28;20206;-76
2023/09/11 11:19:29;;;;;;;1.00;0.70;;;;;;;25.64;38.34;94752.34;5054196;28;20277;-78
2023/09/11 11:21:57;;;;;;;1.02;0.93;;;;;;;25.54;38.56;94744.16;5052850;28;20203;-79
2023/09/11 11:24:25;;;;;;;0.88;0.50;;;;;;;25.57;38.29;94746.88;5046206;28;20204;-78
2023/09/11 11:26:56;;;;;;;0.65;0.60;;;;;;;25.90;38.36;94736.84;5043026;28;20242;-75
2023/09/11 11:29:26;;;;;;;1.00;0.60;;;;;;;25.83;38.15;94742.53;5043740;28;20204;-78
2023/09/11 11:31:55;;;;;;;0.35;0.35;;;;;;;25.44;39.17;94743.91;5046248;28;20211;-76
2023/09/11 11:34:31;;;;;;;0.85;0.50;;;;;;;25.57;38.44;94735.78;5045623;28;20773;-78
2023/09/11 11:36:59;;;;;;;0.80;0.60;;;;;;;25.38;39.52;94728.97;5044319;28;20206;-78
2023/09/11 11:39:28;;;;;;;0.60;0.60;;;;;;;25.37;39.08;94727.38;5042543;28;20200;-76
2023/09/11 11:41:56;;;;;;;0.60;0.50;;;;;;;25.22;38.43;94737.13;5039177;28;20207;-79
2023/09/11 11:44:25;;;;;;;0.82;0.60;;;;;;;25.34;38.66;94725.44;5042042;28;20683;-78
2023/09/11 11:46:52;;;;;;;0.63;0.50;;;;;;;25.54;39.46;94728.31;5040693;28;20206;-77
2023/09/11 11:49:20;;;;;;;0.60;0.50;;;;;;;25.78;38.95;94721.59;5037550;28;20241;-77